sensor_id;sensor_type;location;lat;lon;timestamp;P1;durP1;ratioP1;P2;durP2;ratioP2
11054;SDS011;5580;50.106;8.702;2023-02-11T00:00:10;49.47;;;31.70;;
11054;SDS011;5580;50.106;8.702;2023-02-11T00:02:36;53.33;;;32.47;;
11054;SDS011;5580;50.106;8.702;2023-02-11T00:05:02;48.90;;;32.30;;
11054;SDS011;5580;50.106;8.702;2023-02-11T00:07:28;48.83;;;32.80;;
11054;SDS011;5580;50.106;8.702;2023-02-11T00:09:54;52.10;;;31.73;;
11054;SDS011;5580;50.106;8.702;2023-02-11T00:12:20;51.00;;;32.53;;
11054;SDS011;5580;50.106;8.702;2023-02-11T00:14:45;50.70;;;32.33;;
11054;SDS011;5580;50.106;8.702;2023-02-11T00:17:12;52.77;;;32.43;;
11054;SDS011;5580;50.106;8.702;2023-02-11T00:19:37;49.90;;;32.03;;
11054;SDS011;5580;50.106;8.702;2023-02-11T00:22:03;52.53;;;31.80;;
11054;SDS011;5580;50.106;8.702;2023-02-11T00:24:29;50.60;;;33.07;;
11054;SDS011;5580;50.106;8.702;2023-02-11T00:26:55;56.10;;;32.53;;
11054;SDS011;5580;50.106;8.702;2023-02-11T00:29:21;52.33;;;32.33;;
11054;SDS011;5580;50.106;8.702;2023-02-11T00:31:46;51.73;;;32.80;;
11054;SDS011;5580;50.106;8.702;2023-02-11T00:34:12;54.13;;;32.20;;
11054;SDS011;5580;50.106;8.702;2023-02-11T00:36:38;53.40;;;32.80;;
11054;SDS011;5580;50.106;8.702;2023-02-11T00:39:03;50.93;;;32.03;;
11054;SDS011;5580;50.106;8.702;2023-02-11T00:41:29;51.37;;;33.27;;
11054;SDS011;5580;50.106;8.702;2023-02-11T00:43:55;50.73;;;33.37;;
11054;SDS011;5580;50.106;8.702;2023-02-11T00:46:21;50.67;;;31.93;;
11054;SDS011;5580;50.106;8.702;2023-02-11T00:48:47;50.77;;;32.77;;
11054;SDS011;5580;50.106;8.702;2023-02-11T00:51:13;51.83;;;32.57;;
11054;SDS011;5580;50.106;8.702;2023-02-11T00:53:39;52.03;;;32.73;;
11054;SDS011;5580;50.106;8.702;2023-02-11T00:56:05;52.27;;;33.13;;
11054;SDS011;5580;50.106;8.702;2023-02-11T00:58:31;51.67;;;32.10;;
11054;SDS011;5580;50.106;8.702;2023-02-11T01:00:57;53.27;;;33.80;;
11054;SDS011;5580;50.106;8.702;2023-02-11T01:03:22;51.63;;;32.97;;
11054;SDS011;5580;50.106;8.702;2023-02-11T01:05:48;49.80;;;31.70;;
11054;SDS011;5580;50.106;8.702;2023-02-11T01:08:14;52.47;;;32.73;;
11054;SDS011;5580;50.106;8.702;2023-02-11T01:10:40;55.77;;;33.63;;
11054;SDS011;5580;50.106;8.702;2023-02-11T01:13:05;49.93;;;31.60;;
11054;SDS011;5580;50.106;8.702;2023-02-11T01:15:31;52.40;;;33.33;;
11054;SDS011;5580;50.106;8.702;2023-02-11T01:17:57;49.50;;;31.93;;
11054;SDS011;5580;50.106;8.702;2023-02-11T01:20:23;50.77;;;33.13;;
11054;SDS011;5580;50.106;8.702;2023-02-11T01:22:50;54.70;;;33.37;;
11054;SDS011;5580;50.106;8.702;2023-02-11T01:25:16;53.27;;;32.73;;
11054;SDS011;5580;50.106;8.702;2023-02-11T01:27:42;53.40;;;33.27;;
11054;SDS011;5580;50.106;8.702;2023-02-11T01:30:08;51.77;;;32.73;;
11054;SDS011;5580;50.106;8.702;2023-02-11T01:32:36;49.73;;;31.40;;
11054;SDS011;5580;50.106;8.702;2023-02-11T01:35:02;52.33;;;32.43;;
11054;SDS011;5580;50.106;8.702;2023-02-11T01:37:27;52.90;;;32.47;;
11054;SDS011;5580;50.106;8.702;2023-02-11T01:39:53;50.10;;;31.50;;
11054;SDS011;5580;50.106;8.702;2023-02-11T01:42:19;53.20;;;32.43;;
11054;SDS011;5580;50.106;8.702;2023-02-11T01:44:49;51.57;;;31.80;;
11054;SDS011;5580;50.106;8.702;2023-02-11T01:47:15;51.70;;;30.60;;
11054;SDS011;5580;50.106;8.702;2023-02-11T01:49:43;50.97;;;31.77;;
11054;SDS011;5580;50.106;8.702;2023-02-11T01:52:36;51.63;;;31.80;;
11054;SDS011;5580;50.106;8.702;2023-02-11T01:55:05;49.20;;;31.47;;
11054;SDS011;5580;50.106;8.702;2023-02-11T01:57:53;52.37;;;32.37;;
11054;SDS011;5580;50.106;8.702;2023-02-11T02:00:26;53.93;;;32.77;;
11054;SDS011;5580;50.106;8.702;2023-02-11T02:03:02;52.63;;;31.40;;
11054;SDS011;5580;50.106;8.702;2023-02-11T02:08:29;52.20;;;32.63;;
11054;SDS011;5580;50.106;8.702;2023-02-11T02:11:08;53.07;;;32.03;;
11054;SDS011;5580;50.106;8.702;2023-02-11T02:13:34;53.13;;;31.93;;
11054;SDS011;5580;50.106;8.702;2023-02-11T02:16:01;52.87;;;32.47;;
11054;SDS011;5580;50.106;8.702;2023-02-11T02:21:35;48.97;;;30.67;;
11054;SDS011;5580;50.106;8.702;2023-02-11T02:27:16;51.23;;;32.57;;
11054;SDS011;5580;50.106;8.702;2023-02-11T02:39:00;50.77;;;31.67;;
11054;SDS011;5580;50.106;8.702;2023-02-11T02:41:32;53.07;;;32.30;;
11054;SDS011;5580;50.106;8.702;2023-02-11T02:43:59;51.40;;;32.33;;
11054;SDS011;5580;50.106;8.702;2023-02-11T02:46:26;53.73;;;31.97;;
11054;SDS011;5580;50.106;8.702;2023-02-11T02:48:54;52.57;;;32.10;;
11054;SDS011;5580;50.106;8.702;2023-02-11T02:54:49;52.63;;;31.97;;
11054;SDS011;5580;50.106;8.702;2023-02-11T03:02:35;50.40;;;31.27;;
11054;SDS011;5580;50.106;8.702;2023-02-11T03:07:58;53.07;;;30.67;;
11054;SDS011;5580;50.106;8.702;2023-02-11T03:10:36;53.23;;;32.70;;
11054;SDS011;5580;50.106;8.702;2023-02-11T03:13:05;54.63;;;32.67;;
11054;SDS011;5580;50.106;8.702;2023-02-11T03:15:33;49.00;;;31.50;;
11054;SDS011;5580;50.106;8.702;2023-02-11T03:18:05;52.13;;;32.20;;
11054;SDS011;5580;50.106;8.702;2023-02-11T03:20:35;51.70;;;30.87;;
11054;SDS011;5580;50.106;8.702;2023-02-11T03:23:11;52.77;;;32.27;;
11054;SDS011;5580;50.106;8.702;2023-02-11T03:25:44;53.20;;;31.23;;
11054;SDS011;5580;50.106;8.702;2023-02-11T03:28:20;54.13;;;32.03;;
11054;SDS011;5580;50.106;8.702;2023-02-11T03:31:20;47.63;;;30.73;;
11054;SDS011;5580;50.106;8.702;2023-02-11T03:34:09;51.20;;;31.13;;
11054;SDS011;5580;50.106;8.702;2023-02-11T03:36:50;51.10;;;31.57;;
11054;SDS011;5580;50.106;8.702;2023-02-11T03:39:26;51.43;;;31.53;;
11054;SDS011;5580;50.106;8.702;2023-02-11T03:42:11;52.23;;;32.23;;
11054;SDS011;5580;50.106;8.702;2023-02-11T03:44:46;48.47;;;30.80;;
11054;SDS011;5580;50.106;8.702;2023-02-11T03:47:17;53.00;;;33.17;;
11054;SDS011;5580;50.106;8.702;2023-02-11T03:49:47;52.60;;;32.73;;
11054;SDS011;5580;50.106;8.702;2023-02-11T03:52:15;51.90;;;31.57;;
11054;SDS011;5580;50.106;8.702;2023-02-11T03:54:44;51.13;;;31.90;;
11054;SDS011;5580;50.106;8.702;2023-02-11T03:57:14;48.97;;;31.33;;
11054;SDS011;5580;50.106;8.702;2023-02-11T03:59:50;50.57;;;31.60;;
11054;SDS011;5580;50.106;8.702;2023-02-11T04:02:17;49.80;;;31.80;;
11054;SDS011;5580;50.106;8.702;2023-02-11T04:04:43;49.53;;;31.53;;
11054;SDS011;5580;50.106;8.702;2023-02-11T04:07:10;49.30;;;30.20;;
11054;SDS011;5580;50.106;8.702;2023-02-11T04:09:36;52.50;;;31.07;;
11054;SDS011;5580;50.106;8.702;2023-02-11T04:12:02;46.47;;;29.10;;
11054;SDS011;5580;50.106;8.702;2023-02-11T04:14:28;48.53;;;29.30;;
11054;SDS011;5580;50.106;8.702;2023-02-11T04:16:53;51.70;;;30.57;;
11054;SDS011;5580;50.106;8.702;2023-02-11T04:19:19;46.93;;;29.73;;
11054;SDS011;5580;50.106;8.702;2023-02-11T04:21:45;46.47;;;29.40;;
11054;SDS011;5580;50.106;8.702;2023-02-11T04:24:11;48.00;;;30.73;;
11054;SDS011;5580;50.106;8.702;2023-02-11T04:26:36;45.30;;;28.60;;
11054;SDS011;5580;50.106;8.702;2023-02-11T04:29:02;47.10;;;30.23;;
11054;SDS011;5580;50.106;8.702;2023-02-11T04:31:28;46.57;;;29.30;;
11054;SDS011;5580;50.106;8.702;2023-02-11T04:33:53;48.30;;;30.03;;
11054;SDS011;5580;50.106;8.702;2023-02-11T04:36:19;46.73;;;28.47;;
11054;SDS011;5580;50.106;8.702;2023-02-11T04:38:44;44.07;;;27.97;;
11054;SDS011;5580;50.106;8.702;2023-02-11T04:41:12;46.37;;;29.33;;
11054;SDS011;5580;50.106;8.702;2023-02-11T04:43:38;47.73;;;29.57;;
11054;SDS011;5580;50.106;8.702;2023-02-11T04:46:03;45.50;;;27.57;;
11054;SDS011;5580;50.106;8.702;2023-02-11T04:48:29;44.40;;;28.23;;
11054;SDS011;5580;50.106;8.702;2023-02-11T04:50:55;43.33;;;28.50;;
11054;SDS011;5580;50.106;8.702;2023-02-11T04:53:20;46.00;;;29.03;;
11054;SDS011;5580;50.106;8.702;2023-02-11T04:55:49;52.20;;;29.47;;
11054;SDS011;5580;50.106;8.702;2023-02-11T04:58:15;46.30;;;28.83;;
11054;SDS011;5580;50.106;8.702;2023-02-11T05:00:41;45.17;;;28.50;;
11054;SDS011;5580;50.106;8.702;2023-02-11T05:03:06;46.17;;;29.23;;
11054;SDS011;5580;50.106;8.702;2023-02-11T05:05:32;45.90;;;27.77;;
11054;SDS011;5580;50.106;8.702;2023-02-11T05:07:58;46.07;;;28.40;;
11054;SDS011;5580;50.106;8.702;2023-02-11T05:10:23;48.43;;;28.10;;
11054;SDS011;5580;50.106;8.702;2023-02-11T05:12:49;45.47;;;27.77;;
11054;SDS011;5580;50.106;8.702;2023-02-11T05:15:14;44.57;;;28.53;;
11054;SDS011;5580;50.106;8.702;2023-02-11T05:17:40;43.20;;;27.53;;
11054;SDS011;5580;50.106;8.702;2023-02-11T05:20:05;43.10;;;28.00;;
11054;SDS011;5580;50.106;8.702;2023-02-11T05:22:31;44.27;;;27.43;;
11054;SDS011;5580;50.106;8.702;2023-02-11T05:24:57;44.53;;;27.70;;
11054;SDS011;5580;50.106;8.702;2023-02-11T05:27:22;44.20;;;27.17;;
11054;SDS011;5580;50.106;8.702;2023-02-11T05:29:48;43.17;;;26.97;;
11054;SDS011;5580;50.106;8.702;2023-02-11T05:32:13;44.60;;;28.00;;
11054;SDS011;5580;50.106;8.702;2023-02-11T05:34:39;46.30;;;27.97;;
11054;SDS011;5580;50.106;8.702;2023-02-11T05:37:04;42.37;;;28.07;;
11054;SDS011;5580;50.106;8.702;2023-02-11T05:39:30;45.97;;;28.50;;
11054;SDS011;5580;50.106;8.702;2023-02-11T05:41:56;41.33;;;27.20;;
11054;SDS011;5580;50.106;8.702;2023-02-11T05:44:21;45.07;;;27.63;;
11054;SDS011;5580;50.106;8.702;2023-02-11T05:46:47;41.83;;;27.03;;
11054;SDS011;5580;50.106;8.702;2023-02-11T05:49:13;44.13;;;27.70;;
11054;SDS011;5580;50.106;8.702;2023-02-11T05:51:40;42.23;;;27.43;;
11054;SDS011;5580;50.106;8.702;2023-02-11T05:54:05;43.07;;;27.07;;
11054;SDS011;5580;50.106;8.702;2023-02-11T05:56:31;43.10;;;27.43;;
11054;SDS011;5580;50.106;8.702;2023-02-11T05:58:57;44.87;;;27.70;;
11054;SDS011;5580;50.106;8.702;2023-02-11T06:01:23;41.43;;;26.87;;
11054;SDS011;5580;50.106;8.702;2023-02-11T06:03:49;43.47;;;27.80;;
11054;SDS011;5580;50.106;8.702;2023-02-11T06:06:15;43.37;;;27.30;;
11054;SDS011;5580;50.106;8.702;2023-02-11T06:08:41;41.97;;;27.07;;
11054;SDS011;5580;50.106;8.702;2023-02-11T06:11:07;43.67;;;26.43;;
11054;SDS011;5580;50.106;8.702;2023-02-11T06:13:33;43.90;;;26.83;;
11054;SDS011;5580;50.106;8.702;2023-02-11T06:15:59;44.40;;;26.97;;
11054;SDS011;5580;50.106;8.702;2023-02-11T06:18:26;46.33;;;27.63;;
11054;SDS011;5580;50.106;8.702;2023-02-11T06:20:53;43.87;;;27.80;;
11054;SDS011;5580;50.106;8.702;2023-02-11T06:23:19;44.43;;;27.80;;
11054;SDS011;5580;50.106;8.702;2023-02-11T06:25:48;44.33;;;27.93;;
11054;SDS011;5580;50.106;8.702;2023-02-11T06:28:13;43.80;;;27.10;;
11054;SDS011;5580;50.106;8.702;2023-02-11T06:30:39;44.10;;;27.50;;
11054;SDS011;5580;50.106;8.702;2023-02-11T06:33:04;46.77;;;28.27;;
11054;SDS011;5580;50.106;8.702;2023-02-11T06:35:30;43.00;;;27.93;;
11054;SDS011;5580;50.106;8.702;2023-02-11T06:37:57;45.07;;;28.13;;
11054;SDS011;5580;50.106;8.702;2023-02-11T06:40:23;45.80;;;27.73;;
11054;SDS011;5580;50.106;8.702;2023-02-11T06:42:48;41.23;;;27.20;;
11054;SDS011;5580;50.106;8.702;2023-02-11T06:45:14;41.50;;;26.70;;
11054;SDS011;5580;50.106;8.702;2023-02-11T06:47:39;43.03;;;27.13;;
11054;SDS011;5580;50.106;8.702;2023-02-11T06:50:06;40.77;;;27.00;;
11054;SDS011;5580;50.106;8.702;2023-02-11T06:52:34;45.57;;;27.33;;
11054;SDS011;5580;50.106;8.702;2023-02-11T06:55:00;46.57;;;27.30;;
11054;SDS011;5580;50.106;8.702;2023-02-11T06:57:26;45.13;;;26.93;;
11054;SDS011;5580;50.106;8.702;2023-02-11T06:59:52;42.83;;;27.20;;
11054;SDS011;5580;50.106;8.702;2023-02-11T07:02:17;44.40;;;27.47;;
11054;SDS011;5580;50.106;8.702;2023-02-11T07:04:43;42.90;;;26.80;;
11054;SDS011;5580;50.106;8.702;2023-02-11T07:07:09;46.90;;;27.23;;
11054;SDS011;5580;50.106;8.702;2023-02-11T07:09:34;42.67;;;26.60;;
11054;SDS011;5580;50.106;8.702;2023-02-11T07:12:00;41.73;;;26.40;;
11054;SDS011;5580;50.106;8.702;2023-02-11T07:14:25;45.27;;;26.90;;
11054;SDS011;5580;50.106;8.702;2023-02-11T07:16:51;40.17;;;26.03;;
11054;SDS011;5580;50.106;8.702;2023-02-11T07:19:16;41.57;;;25.70;;
11054;SDS011;5580;50.106;8.702;2023-02-11T07:21:42;42.73;;;26.27;;
11054;SDS011;5580;50.106;8.702;2023-02-11T07:24:08;43.43;;;25.80;;
11054;SDS011;5580;50.106;8.702;2023-02-11T07:26:34;38.60;;;24.63;;
11054;SDS011;5580;50.106;8.702;2023-02-11T07:29:00;42.10;;;26.37;;
11054;SDS011;5580;50.106;8.702;2023-02-11T07:31:26;39.73;;;25.40;;
11054;SDS011;5580;50.106;8.702;2023-02-11T07:33:54;42.00;;;26.83;;
11054;SDS011;5580;50.106;8.702;2023-02-11T07:36:21;41.30;;;25.00;;
11054;SDS011;5580;50.106;8.702;2023-02-11T07:38:47;41.83;;;26.23;;
11054;SDS011;5580;50.106;8.702;2023-02-11T07:41:14;40.50;;;24.80;;
11054;SDS011;5580;50.106;8.702;2023-02-11T07:43:42;39.37;;;24.70;;
11054;SDS011;5580;50.106;8.702;2023-02-11T07:46:09;41.67;;;26.43;;
11054;SDS011;5580;50.106;8.702;2023-02-11T07:48:37;39.83;;;25.63;;
11054;SDS011;5580;50.106;8.702;2023-02-11T07:51:09;41.27;;;25.83;;
11054;SDS011;5580;50.106;8.702;2023-02-11T07:53:56;39.77;;;25.13;;
11054;SDS011;5580;50.106;8.702;2023-02-11T07:56:23;37.77;;;24.43;;
11054;SDS011;5580;50.106;8.702;2023-02-11T07:58:49;39.23;;;25.47;;
11054;SDS011;5580;50.106;8.702;2023-02-11T08:01:16;42.27;;;25.13;;
11054;SDS011;5580;50.106;8.702;2023-02-11T08:03:43;42.80;;;26.27;;
11054;SDS011;5580;50.106;8.702;2023-02-11T08:06:10;42.43;;;26.17;;
11054;SDS011;5580;50.106;8.702;2023-02-11T08:08:37;42.33;;;25.37;;
11054;SDS011;5580;50.106;8.702;2023-02-11T08:11:11;41.00;;;25.67;;
11054;SDS011;5580;50.106;8.702;2023-02-11T08:13:38;38.37;;;24.90;;
11054;SDS011;5580;50.106;8.702;2023-02-11T08:16:07;36.23;;;24.17;;
11054;SDS011;5580;50.106;8.702;2023-02-11T08:18:35;40.33;;;25.20;;
11054;SDS011;5580;50.106;8.702;2023-02-11T08:21:07;41.10;;;25.60;;
11054;SDS011;5580;50.106;8.702;2023-02-11T08:23:37;41.20;;;24.60;;
11054;SDS011;5580;50.106;8.702;2023-02-11T08:26:04;40.40;;;26.37;;
11054;SDS011;5580;50.106;8.702;2023-02-11T08:28:33;40.10;;;26.10;;
11054;SDS011;5580;50.106;8.702;2023-02-11T08:31:07;40.30;;;26.70;;
11054;SDS011;5580;50.106;8.702;2023-02-11T08:33:34;40.40;;;26.00;;
11054;SDS011;5580;50.106;8.702;2023-02-11T08:36:00;43.17;;;25.97;;
11054;SDS011;5580;50.106;8.702;2023-02-11T08:38:26;44.17;;;25.83;;
11054;SDS011;5580;50.106;8.702;2023-02-11T08:40:51;42.97;;;26.13;;
11054;SDS011;5580;50.106;8.702;2023-02-11T08:43:17;39.10;;;25.70;;
11054;SDS011;5580;50.106;8.702;2023-02-11T08:45:43;41.93;;;25.40;;
11054;SDS011;5580;50.106;8.702;2023-02-11T08:48:08;39.20;;;25.50;;
11054;SDS011;5580;50.106;8.702;2023-02-11T08:50:34;40.50;;;26.10;;
11054;SDS011;5580;50.106;8.702;2023-02-11T08:53:02;39.43;;;25.47;;
11054;SDS011;5580;50.106;8.702;2023-02-11T08:55:28;41.77;;;26.17;;
11054;SDS011;5580;50.106;8.702;2023-02-11T08:57:53;38.40;;;25.73;;
11054;SDS011;5580;50.106;8.702;2023-02-11T09:00:19;40.67;;;25.23;;
11054;SDS011;5580;50.106;8.702;2023-02-11T09:02:45;40.07;;;26.57;;
11054;SDS011;5580;50.106;8.702;2023-02-11T09:05:11;40.87;;;25.77;;
11054;SDS011;5580;50.106;8.702;2023-02-11T09:07:36;36.40;;;25.23;;
11054;SDS011;5580;50.106;8.702;2023-02-11T09:10:02;38.37;;;24.60;;
11054;SDS011;5580;50.106;8.702;2023-02-11T09:12:28;38.63;;;25.40;;
11054;SDS011;5580;50.106;8.702;2023-02-11T09:14:53;42.33;;;25.93;;
11054;SDS011;5580;50.106;8.702;2023-02-11T09:17:19;42.67;;;26.13;;
11054;SDS011;5580;50.106;8.702;2023-02-11T09:19:44;40.67;;;26.23;;
11054;SDS011;5580;50.106;8.702;2023-02-11T09:22:10;42.37;;;26.37;;
11054;SDS011;5580;50.106;8.702;2023-02-11T09:24:35;40.27;;;26.73;;
11054;SDS011;5580;50.106;8.702;2023-02-11T09:27:01;44.03;;;26.77;;
11054;SDS011;5580;50.106;8.702;2023-02-11T09:29:26;42.30;;;27.00;;
11054;SDS011;5580;50.106;8.702;2023-02-11T09:31:52;38.57;;;25.47;;
11054;SDS011;5580;50.106;8.702;2023-02-11T09:34:17;44.30;;;26.90;;
11054;SDS011;5580;50.106;8.702;2023-02-11T09:36:43;41.73;;;26.87;;
11054;SDS011;5580;50.106;8.702;2023-02-11T09:39:14;42.40;;;26.60;;
11054;SDS011;5580;50.106;8.702;2023-02-11T09:44:20;43.03;;;26.73;;
11054;SDS011;5580;50.106;8.702;2023-02-11T09:47:00;40.53;;;25.83;;
11054;SDS011;5580;50.106;8.702;2023-02-11T09:52:19;42.23;;;26.30;;
11054;SDS011;5580;50.106;8.702;2023-02-11T09:54:58;43.70;;;26.43;;
11054;SDS011;5580;50.106;8.702;2023-02-11T09:57:28;42.07;;;27.13;;
11054;SDS011;5580;50.106;8.702;2023-02-11T09:59:57;42.63;;;26.60;;
11054;SDS011;5580;50.106;8.702;2023-02-11T10:05:30;45.67;;;26.90;;
11054;SDS011;5580;50.106;8.702;2023-02-11T10:10:50;42.10;;;26.47;;
11054;SDS011;5580;50.106;8.702;2023-02-11T10:13:24;41.33;;;27.47;;
11054;SDS011;5580;50.106;8.702;2023-02-11T10:22:01;42.50;;;27.17;;
11054;SDS011;5580;50.106;8.702;2023-02-11T10:24:37;40.67;;;26.97;;
11054;SDS011;5580;50.106;8.702;2023-02-11T10:27:14;44.07;;;27.77;;
11054;SDS011;5580;50.106;8.702;2023-02-11T10:29:47;44.47;;;27.40;;
11054;SDS011;5580;50.106;8.702;2023-02-11T10:32:40;41.50;;;26.67;;
11054;SDS011;5580;50.106;8.702;2023-02-11T10:35:29;44.27;;;26.47;;
11054;SDS011;5580;50.106;8.702;2023-02-11T10:37:53;44.27;;;27.17;;
11054;SDS011;5580;50.106;8.702;2023-02-11T10:40:24;43.93;;;27.70;;
11054;SDS011;5580;50.106;8.702;2023-02-11T10:42:52;40.53;;;26.37;;
11054;SDS011;5580;50.106;8.702;2023-02-11T10:47:55;45.07;;;28.63;;
11054;SDS011;5580;50.106;8.702;2023-02-11T10:52:50;42.07;;;27.63;;
11054;SDS011;5580;50.106;8.702;2023-02-11T10:55:20;42.03;;;27.17;;
11054;SDS011;5580;50.106;8.702;2023-02-11T10:57:57;42.27;;;27.43;;
11054;SDS011;5580;50.106;8.702;2023-02-11T11:03:01;42.10;;;27.37;;
11054;SDS011;5580;50.106;8.702;2023-02-11T11:05:31;42.97;;;27.83;;
11054;SDS011;5580;50.106;8.702;2023-02-11T11:07:59;43.20;;;26.87;;
11054;SDS011;5580;50.106;8.702;2023-02-11T11:10:47;39.03;;;25.93;;
11054;SDS011;5580;50.106;8.702;2023-02-11T11:13:37;43.60;;;27.57;;
11054;SDS011;5580;50.106;8.702;2023-02-11T11:16:21;41.90;;;26.73;;
11054;SDS011;5580;50.106;8.702;2023-02-11T11:18:50;39.10;;;26.10;;
11054;SDS011;5580;50.106;8.702;2023-02-11T11:21:35;43.90;;;27.50;;
11054;SDS011;5580;50.106;8.702;2023-02-11T11:26:47;45.53;;;27.67;;
11054;SDS011;5580;50.106;8.702;2023-02-11T11:31:54;43.93;;;27.33;;
11054;SDS011;5580;50.106;8.702;2023-02-11T11:37:12;40.13;;;26.23;;
11054;SDS011;5580;50.106;8.702;2023-02-11T11:39:39;39.07;;;25.70;;
11054;SDS011;5580;50.106;8.702;2023-02-11T11:42:22;42.33;;;26.03;;
11054;SDS011;5580;50.106;8.702;2023-02-11T11:44:59;41.57;;;26.20;;
11054;SDS011;5580;50.106;8.702;2023-02-11T11:50:27;43.17;;;26.20;;
11054;SDS011;5580;50.106;8.702;2023-02-11T11:55:32;42.23;;;26.83;;
11054;SDS011;5580;50.106;8.702;2023-02-11T11:58:03;37.60;;;25.83;;
11054;SDS011;5580;50.106;8.702;2023-02-11T12:00:43;38.97;;;25.53;;
11054;SDS011;5580;50.106;8.702;2023-02-11T12:15:12;39.93;;;26.17;;
11054;SDS011;5580;50.106;8.702;2023-02-11T12:20:37;44.13;;;26.97;;
11054;SDS011;5580;50.106;8.702;2023-02-11T12:26:18;40.30;;;26.33;;
11054;SDS011;5580;50.106;8.702;2023-02-11T12:55:45;40.70;;;26.40;;
11054;SDS011;5580;50.106;8.702;2023-02-11T12:58:17;43.07;;;26.43;;
11054;SDS011;5580;50.106;8.702;2023-02-11T13:00:47;41.60;;;26.30;;
11054;SDS011;5580;50.106;8.702;2023-02-11T13:03:36;39.90;;;25.50;;
11054;SDS011;5580;50.106;8.702;2023-02-11T13:06:08;38.93;;;25.57;;
11054;SDS011;5580;50.106;8.702;2023-02-11T13:11:42;39.10;;;24.57;;
11054;SDS011;5580;50.106;8.702;2023-02-11T13:14:29;41.40;;;26.10;;
11054;SDS011;5580;50.106;8.702;2023-02-11T13:17:00;39.10;;;25.23;;
11054;SDS011;5580;50.106;8.702;2023-02-11T13:19:47;37.53;;;24.97;;
11054;SDS011;5580;50.106;8.702;2023-02-11T13:22:25;35.43;;;23.37;;
11054;SDS011;5580;50.106;8.702;2023-02-11T13:24:55;37.73;;;23.37;;
11054;SDS011;5580;50.106;8.702;2023-02-11T13:35:37;36.33;;;21.77;;
11054;SDS011;5580;50.106;8.702;2023-02-11T13:38:05;36.03;;;21.97;;
11054;SDS011;5580;50.106;8.702;2023-02-11T13:41:30;35.47;;;21.53;;
11054;SDS011;5580;50.106;8.702;2023-02-11T13:43:38;38.30;;;21.83;;
11054;SDS011;5580;50.106;8.702;2023-02-11T13:46:04;31.23;;;20.50;;
11054;SDS011;5580;50.106;8.702;2023-02-11T13:48:35;33.20;;;21.53;;
11054;SDS011;5580;50.106;8.702;2023-02-11T13:53:47;33.93;;;21.03;;
11054;SDS011;5580;50.106;8.702;2023-02-11T13:58:54;33.27;;;21.17;;
11054;SDS011;5580;50.106;8.702;2023-02-11T14:16:12;36.50;;;22.17;;
11054;SDS011;5580;50.106;8.702;2023-02-11T14:21:18;32.70;;;21.40;;
11054;SDS011;5580;50.106;8.702;2023-02-11T14:23:51;34.70;;;21.83;;
11054;SDS011;5580;50.106;8.702;2023-02-11T14:28:43;34.17;;;21.33;;
11054;SDS011;5580;50.106;8.702;2023-02-11T14:31:20;33.47;;;21.33;;
11054;SDS011;5580;50.106;8.702;2023-02-11T14:41:59;33.77;;;20.97;;
11054;SDS011;5580;50.106;8.702;2023-02-11T14:44:27;37.30;;;21.73;;
11054;SDS011;5580;50.106;8.702;2023-02-11T14:46:56;33.83;;;21.00;;
11054;SDS011;5580;50.106;8.702;2023-02-11T14:49:27;31.70;;;20.37;;
11054;SDS011;5580;50.106;8.702;2023-02-11T14:51:59;38.47;;;21.47;;
11054;SDS011;5580;50.106;8.702;2023-02-11T14:54:31;33.57;;;20.40;;
11054;SDS011;5580;50.106;8.702;2023-02-11T14:57:11;32.40;;;20.90;;
11054;SDS011;5580;50.106;8.702;2023-02-11T14:59:39;37.77;;;20.90;;
11054;SDS011;5580;50.106;8.702;2023-02-11T15:02:20;32.00;;;21.00;;
11054;SDS011;5580;50.106;8.702;2023-02-11T15:04:47;32.20;;;20.30;;
11054;SDS011;5580;50.106;8.702;2023-02-11T15:07:13;30.73;;;20.17;;
11054;SDS011;5580;50.106;8.702;2023-02-11T15:09:45;29.47;;;18.63;;
11054;SDS011;5580;50.106;8.702;2023-02-11T15:12:21;31.83;;;20.03;;
11054;SDS011;5580;50.106;8.702;2023-02-11T15:14:50;33.60;;;19.63;;
11054;SDS011;5580;50.106;8.702;2023-02-11T15:17:20;29.90;;;19.40;;
11054;SDS011;5580;50.106;8.702;2023-02-11T15:19:50;32.17;;;19.07;;
11054;SDS011;5580;50.106;8.702;2023-02-11T15:22:26;27.17;;;17.83;;
11054;SDS011;5580;50.106;8.702;2023-02-11T15:25:13;29.47;;;19.13;;
11054;SDS011;5580;50.106;8.702;2023-02-11T15:32:46;28.57;;;17.43;;
11054;SDS011;5580;50.106;8.702;2023-02-11T15:35:16;27.03;;;16.57;;
11054;SDS011;5580;50.106;8.702;2023-02-11T15:37:42;26.83;;;16.87;;
11054;SDS011;5580;50.106;8.702;2023-02-11T15:40:10;28.80;;;17.93;;
11054;SDS011;5580;50.106;8.702;2023-02-11T15:45:41;25.80;;;15.97;;
11054;SDS011;5580;50.106;8.702;2023-02-11T15:48:21;26.53;;;16.73;;
11054;SDS011;5580;50.106;8.702;2023-02-11T15:50:51;26.50;;;16.57;;
11054;SDS011;5580;50.106;8.702;2023-02-11T15:55:51;27.40;;;16.50;;
11054;SDS011;5580;50.106;8.702;2023-02-11T15:58:26;26.40;;;16.47;;
11054;SDS011;5580;50.106;8.702;2023-02-11T16:00:52;27.57;;;17.03;;
11054;SDS011;5580;50.106;8.702;2023-02-11T16:03:24;27.27;;;15.87;;
11054;SDS011;5580;50.106;8.702;2023-02-11T16:05:52;27.97;;;17.67;;
11054;SDS011;5580;50.106;8.702;2023-02-11T16:10:57;25.03;;;16.43;;
11054;SDS011;5580;50.106;8.702;2023-02-11T16:13:27;25.60;;;16.60;;
11054;SDS011;5580;50.106;8.702;2023-02-11T16:16:01;26.93;;;17.23;;
11054;SDS011;5580;50.106;8.702;2023-02-11T16:21:15;27.50;;;17.63;;
11054;SDS011;5580;50.106;8.702;2023-02-11T16:23:48;31.93;;;18.33;;
11054;SDS011;5580;50.106;8.702;2023-02-11T16:26:21;24.80;;;16.77;;
11054;SDS011;5580;50.106;8.702;2023-02-11T16:28:49;27.70;;;17.70;;
11054;SDS011;5580;50.106;8.702;2023-02-11T16:31:15;28.53;;;17.97;;
11054;SDS011;5580;50.106;8.702;2023-02-11T16:33:41;25.27;;;16.73;;
11054;SDS011;5580;50.106;8.702;2023-02-11T16:36:13;30.40;;;17.70;;
11054;SDS011;5580;50.106;8.702;2023-02-11T16:38:43;29.47;;;17.07;;
11054;SDS011;5580;50.106;8.702;2023-02-11T16:41:08;27.70;;;17.77;;
11054;SDS011;5580;50.106;8.702;2023-02-11T16:43:37;29.10;;;17.40;;
11054;SDS011;5580;50.106;8.702;2023-02-11T16:46:03;24.33;;;16.63;;
11054;SDS011;5580;50.106;8.702;2023-02-11T16:48:28;28.30;;;17.67;;
11054;SDS011;5580;50.106;8.702;2023-02-11T16:50:54;24.80;;;16.67;;
11054;SDS011;5580;50.106;8.702;2023-02-11T16:53:21;27.93;;;17.63;;
11054;SDS011;5580;50.106;8.702;2023-02-11T16:55:48;26.87;;;16.97;;
11054;SDS011;5580;50.106;8.702;2023-02-11T16:58:14;28.13;;;16.93;;
11054;SDS011;5580;50.106;8.702;2023-02-11T17:00:40;30.50;;;18.87;;
11054;SDS011;5580;50.106;8.702;2023-02-11T17:03:09;28.67;;;18.93;;
11054;SDS011;5580;50.106;8.702;2023-02-11T17:05:40;29.93;;;19.03;;
11054;SDS011;5580;50.106;8.702;2023-02-11T17:08:06;29.33;;;19.83;;
11054;SDS011;5580;50.106;8.702;2023-02-11T17:10:31;29.87;;;19.40;;
11054;SDS011;5580;50.106;8.702;2023-02-11T17:12:57;32.10;;;19.67;;
11054;SDS011;5580;50.106;8.702;2023-02-11T17:15:22;31.23;;;20.77;;
11054;SDS011;5580;50.106;8.702;2023-02-11T17:17:48;32.10;;;20.40;;
11054;SDS011;5580;50.106;8.702;2023-02-11T17:20:14;31.60;;;20.17;;
11054;SDS011;5580;50.106;8.702;2023-02-11T17:22:40;31.00;;;20.20;;
11054;SDS011;5580;50.106;8.702;2023-02-11T17:25:06;34.73;;;21.73;;
11054;SDS011;5580;50.106;8.702;2023-02-11T17:27:32;32.37;;;21.47;;
11054;SDS011;5580;50.106;8.702;2023-02-11T17:29:58;32.00;;;20.70;;
11054;SDS011;5580;50.106;8.702;2023-02-11T17:32:26;33.80;;;21.27;;
11054;SDS011;5580;50.106;8.702;2023-02-11T17:34:52;35.17;;;21.60;;
11054;SDS011;5580;50.106;8.702;2023-02-11T17:37:18;34.57;;;21.90;;